EOK366 RKTU-RJFF
Flight info
| Callsign | EOK366 |
|---|---|
| Flight time | N/A |
| Altitude | 31000 |
| Route | CHO5 MAKDU Y782 TGU Y781 BESNA Y209 SARUP |
| Aircraft | A320/M-SDE3FGHIRWY/LB1 |
Departure
| Time | 2026-04-26 12:45 |
|---|---|
| Airport | Cheongju International Airport/Cheongju Air Base (K-59/G-513) (RKTU) |
Arrival
| Time | N/A |
|---|---|
| Airport | Fukuoka Airport (RJFF) |
| Time | Latitude | Longitude | Altitude | Speed | Heading |
|---|---|---|---|---|---|
| 2026-04-26 12:43 | 36.72622 | 127.51056 | 208 ft | 0 kts | 150° |
| 2026-04-26 12:44 | 36.72621 | 127.51057 | 167 ft | 2 kts | 150° |
| 2026-04-26 12:44 | 36.72531 | 127.51080 | 185 ft | 19 kts | 187° |
| 2026-04-26 12:44 | 36.72436 | 127.50979 | 183 ft | 24 kts | 252° |
| 2026-04-26 12:45 | 36.72398 | 127.50917 | 192 ft | 6 kts | 219° |
| 2026-04-26 12:45 | 36.72214 | 127.50641 | 180 ft | 85 kts | 232° |
| 2026-04-26 12:45 | 36.71698 | 127.49788 | 254 ft | 153 kts | 233° |
| 2026-04-26 12:45 | 36.71009 | 127.48723 | 844 ft | 162 kts | 231° |
| 2026-04-26 12:46 | 36.70284 | 127.47633 | 1592 ft | 164 kts | 232° |
| 2026-04-26 12:46 | 36.69509 | 127.46535 | 2188 ft | 178 kts | 232° |
| 2026-04-26 12:46 | 36.68610 | 127.45337 | 2489 ft | 200 kts | 231° |
| 2026-04-26 12:46 | 36.67605 | 127.43988 | 2776 ft | 225 kts | 231° |
| 2026-04-26 12:47 | 36.66647 | 127.42334 | 3179 ft | 245 kts | 251° |
| 2026-04-26 12:47 | 36.66435 | 127.40192 | 3727 ft | 257 kts | 281° |
| 2026-04-26 12:47 | 36.67137 | 127.38143 | 4508 ft | 263 kts | 309° |
| 2026-04-26 12:47 | 36.68579 | 127.36727 | 5305 ft | 270 kts | 336° |
| 2026-04-26 12:48 | 36.70432 | 127.36304 | 6119 ft | 276 kts | 4° |
| 2026-04-26 12:48 | 36.72272 | 127.36997 | 6917 ft | 281 kts | 31° |
| 2026-04-26 12:48 | 36.73685 | 127.38677 | 7718 ft | 285 kts | 58° |
| 2026-04-26 12:48 | 36.74363 | 127.40997 | 8528 ft | 290 kts | 84° |
| 2026-04-26 12:49 | 36.74157 | 127.43494 | 9341 ft | 294 kts | 109° |
| 2026-04-26 12:49 | 36.73272 | 127.45810 | 10135 ft | 299 kts | 123° |
| 2026-04-26 12:49 | 36.71843 | 127.47815 | 10398 ft | 322 kts | 138° |
| 2026-04-26 12:49 | 36.70077 | 127.49698 | 10638 ft | 343 kts | 140° |
| 2026-04-26 12:50 | 36.68914 | 127.51057 | 10960 ft | 350 kts | 133° |
| 2026-04-26 12:50 | 36.67353 | 127.53412 | 11630 ft | 355 kts | 127° |
| 2026-04-26 12:50 | 36.65856 | 127.55884 | 12325 ft | 360 kts | 127° |
| 2026-04-26 12:50 | 36.64294 | 127.58341 | 13025 ft | 364 kts | 129° |
| 2026-04-26 12:51 | 36.62057 | 127.61500 | 13907 ft | 370 kts | 133° |
| 2026-04-26 12:51 | 36.60849 | 127.63070 | 14318 ft | 373 kts | 134° |
| 2026-04-26 12:51 | 36.58391 | 127.66097 | 15136 ft | 378 kts | 136° |
| 2026-04-26 12:51 | 36.57109 | 127.67631 | 15561 ft | 380 kts | 136° |
| 2026-04-26 12:52 | 36.55192 | 127.69914 | 16166 ft | 384 kts | 136° |
| 2026-04-26 12:52 | 36.50527 | 127.75536 | 17604 ft | 392 kts | 136° |
| 2026-04-26 12:52 | 36.43549 | 127.84082 | 19481 ft | 404 kts | 137° |
| 2026-04-26 12:52 | 36.41537 | 127.86536 | 19975 ft | 407 kts | 137° |
| 2026-04-26 12:53 | 36.39505 | 127.89006 | 20456 ft | 410 kts | 138° |
| 2026-04-26 12:53 | 36.37456 | 127.91489 | 20932 ft | 413 kts | 138° |
| 2026-04-26 12:53 | 36.35388 | 127.93986 | 21397 ft | 416 kts | 138° |
| 2026-04-26 12:53 | 36.33305 | 127.96499 | 21866 ft | 419 kts | 138° |
| 2026-04-26 12:54 | 36.31209 | 127.99025 | 22342 ft | 422 kts | 139° |
| 2026-04-26 12:54 | 36.29092 | 128.01573 | 22795 ft | 425 kts | 139° |
| 2026-04-26 12:54 | 36.26964 | 128.04135 | 23251 ft | 428 kts | 139° |
| 2026-04-26 12:54 | 36.24818 | 128.06714 | 23639 ft | 431 kts | 139° |
| 2026-04-26 12:55 | 36.22657 | 128.09312 | 24009 ft | 434 kts | 139° |
| 2026-04-26 12:55 | 36.20483 | 128.11927 | 24381 ft | 436 kts | 139° |
| 2026-04-26 12:55 | 36.18299 | 128.14555 | 24745 ft | 439 kts | 139° |
| 2026-04-26 12:55 | 36.16103 | 128.17196 | 25107 ft | 441 kts | 139° |
| 2026-04-26 12:56 | 36.13896 | 128.19845 | 25449 ft | 444 kts | 139° |
| 2026-04-26 12:56 | 36.11675 | 128.22506 | 25801 ft | 446 kts | 139° |
| 2026-04-26 12:56 | 36.09439 | 128.25181 | 26142 ft | 448 kts | 139° |